createdAt,value
2019-01-26T00:00:18.381Z,5.05
2019-01-26T00:02:49.672Z,5.08
2019-01-26T00:05:19.421Z,5.14
2019-01-26T00:07:49.176Z,5.18
2019-01-26T00:10:18.865Z,5.23
2019-01-26T00:12:48.540Z,5.28
2019-01-26T00:15:18.374Z,5.36
2019-01-26T00:17:48.127Z,5.39
2019-01-26T00:20:17.884Z,5.44
2019-01-26T00:22:47.566Z,5.51
2019-01-26T00:25:17.247Z,5.56
2019-01-26T00:27:46.925Z,5.62
2019-01-26T00:30:16.931Z,5.67
2019-01-26T00:32:46.616Z,5.75
2019-01-26T00:35:17.344Z,5.80
2019-01-26T00:37:47.085Z,5.82
2019-01-26T00:40:17.114Z,5.85
2019-01-26T00:42:46.787Z,5.91
2019-01-26T00:45:16.724Z,5.95
2019-01-26T00:47:46.400Z,5.98
2019-01-26T00:50:16.330Z,6.01
2019-01-26T00:52:46.010Z,6.02
2019-01-26T00:55:15.685Z,6.07
2019-01-26T00:57:45.441Z,6.09
2019-01-26T01:00:15.801Z,6.12
2019-01-26T01:02:45.752Z,6.17
2019-01-26T01:05:15.798Z,6.21
2019-01-26T01:07:45.879Z,6.23
2019-01-26T01:10:16.060Z,6.31
2019-01-26T01:12:45.886Z,6.42
2019-01-26T01:15:18.043Z,6.45
2019-01-26T01:17:47.792Z,6.48
2019-01-26T01:20:18.226Z,6.54
2019-01-26T01:22:47.981Z,6.56
2019-01-26T01:25:17.875Z,6.60
2019-01-26T01:27:47.524Z,6.64
2019-01-26T01:30:19.499Z,6.66
2019-01-26T01:32:49.795Z,6.68
2019-01-26T01:35:19.725Z,6.68
2019-01-26T01:37:49.490Z,6.70
2019-01-26T01:40:19.746Z,6.76
2019-01-26T01:42:49.512Z,6.77
2019-01-26T01:45:19.728Z,6.79
2019-01-26T01:47:49.474Z,6.81
2019-01-26T01:50:19.426Z,6.84
2019-01-26T01:52:49.190Z,6.84
2019-01-26T01:55:18.857Z,6.86
2019-01-26T01:57:48.536Z,6.91
2019-01-26T02:00:20.405Z,6.94
2019-01-26T02:02:50.487Z,6.98
2019-01-26T02:05:20.189Z,7.00
2019-01-26T02:07:50.068Z,7.03
2019-01-26T02:10:21.290Z,7.06
2019-01-26T02:12:51.113Z,7.07
2019-01-26T02:15:20.951Z,7.09
2019-01-26T02:17:50.713Z,7.12
2019-01-26T02:20:22.286Z,7.14
2019-01-26T02:22:51.958Z,7.15
2019-01-26T02:25:21.772Z,7.17
2019-01-26T02:27:51.444Z,7.17
2019-01-26T02:30:23.370Z,7.19
2019-01-26T02:32:54.684Z,7.21
2019-01-26T02:35:24.440Z,7.21
2019-01-26T02:37:54.249Z,7.20
2019-01-26T02:40:23.932Z,7.20
2019-01-26T02:42:53.589Z,7.21
2019-01-26T02:45:23.269Z,7.21
2019-01-26T02:47:53.986Z,7.23
2019-01-26T02:50:23.662Z,7.24
2019-01-26T02:52:53.348Z,7.22
2019-01-26T02:55:23.019Z,7.20
2019-01-26T02:57:52.708Z,7.21
2019-01-26T03:00:23.554Z,7.22
2019-01-26T03:02:53.312Z,7.25
2019-01-26T03:05:22.998Z,7.25
2019-01-26T03:07:52.687Z,7.22
2019-01-26T03:10:23.316Z,7.24
2019-01-26T03:12:53.069Z,7.24
2019-01-26T03:15:24.034Z,7.24
2019-01-26T03:17:53.714Z,7.26
2019-01-26T03:20:23.640Z,7.28
2019-01-26T03:22:53.326Z,7.27
2019-01-26T03:25:23.034Z,7.29
2019-01-26T03:27:52.753Z,7.33
2019-01-26T03:30:24.519Z,7.35
2019-01-26T03:32:54.198Z,7.36
2019-01-26T03:35:23.962Z,7.35
2019-01-26T03:37:53.638Z,7.37
2019-01-26T03:40:23.819Z,7.40
2019-01-26T03:42:53.488Z,7.41
2019-01-26T03:45:23.483Z,7.43
2019-01-26T03:47:53.153Z,7.47
2019-01-26T03:50:22.905Z,7.47
2019-01-26T03:52:52.682Z,7.42
2019-01-26T03:55:22.710Z,7.42
2019-01-26T03:57:52.402Z,7.47
2019-01-26T04:00:24.503Z,7.47
2019-01-26T04:02:54.936Z,7.46
2019-01-26T04:05:24.669Z,7.46
2019-01-26T04:07:54.510Z,7.47
2019-01-26T04:10:24.273Z,7.52
2019-01-26T04:12:54.312Z,7.54
2019-01-26T04:15:24.105Z,7.54
2019-01-26T04:17:53.857Z,7.56
2019-01-26T04:20:23.669Z,7.58
2019-01-26T04:22:53.367Z,7.59
2019-01-26T04:25:23.182Z,7.58
2019-01-26T04:27:52.870Z,7.57
2019-01-26T04:30:23.286Z,7.56
2019-01-26T04:32:52.966Z,7.56
2019-01-26T04:35:22.663Z,7.57
2019-01-26T04:37:52.559Z,7.57
2019-01-26T04:40:23.217Z,7.59
2019-01-26T04:42:52.906Z,7.58
2019-01-26T04:45:24.073Z,7.56
2019-01-26T04:47:53.833Z,7.57
2019-01-26T04:50:23.558Z,7.57
2019-01-26T04:52:53.383Z,7.58
2019-01-26T04:55:23.281Z,7.58
2019-01-26T04:57:53.061Z,7.57
2019-01-26T05:00:31.025Z,7.58
2019-01-26T05:03:06.115Z,7.57
2019-01-26T05:05:36.065Z,7.59
2019-01-26T05:08:05.843Z,7.59
2019-01-26T05:10:35.522Z,7.61
2019-01-26T05:13:05.368Z,7.61
2019-01-26T05:15:35.065Z,7.61
2019-01-26T05:18:05.328Z,7.63
2019-01-26T05:20:35.001Z,7.66
2019-01-26T05:23:05.714Z,7.65
2019-01-26T05:25:35.464Z,7.65
2019-01-26T05:28:05.779Z,7.66
2019-01-26T05:30:35.541Z,7.65
2019-01-26T05:33:06.029Z,7.64
2019-01-26T05:35:37.908Z,7.66
2019-01-26T05:38:07.577Z,7.65
2019-01-26T05:40:37.272Z,7.65
2019-01-26T05:43:07.423Z,7.66
2019-01-26T05:45:37.344Z,7.66
2019-01-26T05:48:07.114Z,7.67
2019-01-26T05:50:36.804Z,7.68
2019-01-26T05:53:06.568Z,7.69
2019-01-26T05:55:36.264Z,7.67
2019-01-26T05:58:05.955Z,7.66
2019-01-26T06:00:36.540Z,7.69
2019-01-26T06:03:06.365Z,7.72
2019-01-26T06:05:36.064Z,7.69
2019-01-26T06:08:05.817Z,7.67
2019-01-26T06:10:35.791Z,7.69
2019-01-26T06:13:05.558Z,7.72
2019-01-26T06:15:35.324Z,7.71
2019-01-26T06:18:06.033Z,7.72
2019-01-26T06:20:35.716Z,7.72
2019-01-26T06:23:05.422Z,7.73
2019-01-26T06:25:35.107Z,7.73
2019-01-26T06:28:05.769Z,7.74
2019-01-26T06:30:35.524Z,7.74
2019-01-26T06:33:05.422Z,7.70
2019-01-26T06:35:36.401Z,7.72
2019-01-26T06:38:06.160Z,7.74
2019-01-26T06:40:35.838Z,7.72
2019-01-26T06:43:05.693Z,7.72
2019-01-26T06:45:35.381Z,7.74
2019-01-26T06:48:05.500Z,7.74
2019-01-26T06:50:35.194Z,7.73
2019-01-26T06:53:05.399Z,7.74
2019-01-26T06:55:35.492Z,7.74
2019-01-26T06:58:05.543Z,7.72
2019-01-26T07:00:35.369Z,7.73
2019-01-26T07:03:05.761Z,7.71
2019-01-26T07:05:58.314Z,7.71
2019-01-26T07:08:27.997Z,7.73
2019-01-26T07:10:57.665Z,7.69
2019-01-26T07:13:27.445Z,7.67
2019-01-26T07:15:59.187Z,7.68
2019-01-26T07:18:28.948Z,7.70
2019-01-26T07:20:58.772Z,7.69
2019-01-26T07:23:30.029Z,7.69
2019-01-26T07:25:59.805Z,7.67
2019-01-26T07:28:29.561Z,7.67
2019-01-26T07:30:59.228Z,7.66
2019-01-26T07:33:29.256Z,7.66
2019-01-26T07:35:58.923Z,7.64
2019-01-26T07:38:29.131Z,7.64
2019-01-26T07:40:58.870Z,7.66
2019-01-26T07:43:28.749Z,7.66
2019-01-26T07:45:58.548Z,7.66
2019-01-26T07:48:28.215Z,7.67
2019-01-26T07:50:57.980Z,7.64
2019-01-26T07:53:27.726Z,7.66
2019-01-26T07:55:57.405Z,7.66
2019-01-26T07:58:27.091Z,7.68
2019-01-26T08:00:57.129Z,7.68
2019-01-26T08:03:26.813Z,7.65
2019-01-26T08:05:56.569Z,7.66
2019-01-26T08:08:26.252Z,7.65
2019-01-26T08:10:55.924Z,7.67
2019-01-26T08:13:25.597Z,7.66
2019-01-26T08:15:55.264Z,7.67
2019-01-26T08:18:24.961Z,7.66
2019-01-26T08:20:54.868Z,7.66
2019-01-26T08:23:24.544Z,7.66
2019-01-26T08:25:54.236Z,7.64
2019-01-26T08:28:23.913Z,7.66
2019-01-26T08:30:53.592Z,7.66
2019-01-26T08:33:23.292Z,7.68
2019-01-26T08:35:52.967Z,7.69
2019-01-26T08:38:22.654Z,7.68
2019-01-26T08:40:52.481Z,7.68
2019-01-26T08:43:23.141Z,7.71
2019-01-26T08:45:52.820Z,7.75
2019-01-26T08:48:22.509Z,7.77
2019-01-26T08:50:52.200Z,7.77
2019-01-26T08:53:21.887Z,7.78
2019-01-26T08:58:41.551Z,7.87
2019-01-26T09:01:11.249Z,7.90
2019-01-26T09:04:03.899Z,7.89
2019-01-26T09:06:41.621Z,7.88
2019-01-26T09:09:13.025Z,7.86
2019-01-26T09:11:42.800Z,7.85
2019-01-26T09:14:12.488Z,7.87
2019-01-26T09:16:42.342Z,7.87
2019-01-26T09:19:12.025Z,7.89
2019-01-26T09:21:41.720Z,7.90
2019-01-26T09:24:11.524Z,7.89
2019-01-26T09:26:41.205Z,7.89
2019-01-26T09:29:10.902Z,7.92
2019-01-26T09:31:40.575Z,7.87
2019-01-26T09:34:10.264Z,7.90
2019-01-26T09:36:40.125Z,7.90
2019-01-26T09:39:11.520Z,7.91
2019-01-26T09:41:41.277Z,7.89
2019-01-26T09:44:11.047Z,7.89
2019-01-26T09:46:40.728Z,7.90
2019-01-26T09:49:10.431Z,7.91
2019-01-26T09:51:40.184Z,7.89
2019-01-26T09:54:10.013Z,7.87
2019-01-26T09:56:40.042Z,7.89
2019-01-26T09:59:09.867Z,7.89
2019-01-26T10:01:39.551Z,7.87
2019-01-26T10:04:09.216Z,7.87
2019-01-26T10:06:39.494Z,7.86
2019-01-26T10:09:12.779Z,7.85
2019-01-26T10:11:42.544Z,7.82
2019-01-26T10:14:12.236Z,7.84
2019-01-26T10:16:42.038Z,7.81
2019-01-26T10:19:11.713Z,7.81
2019-01-26T10:21:41.685Z,7.82
2019-01-26T10:24:11.496Z,7.82
2019-01-26T10:26:41.264Z,7.82
2019-01-26T10:29:11.216Z,7.78
2019-01-26T10:31:41.812Z,7.81
2019-01-26T10:34:11.589Z,7.84
2019-01-26T10:36:57.440Z,7.83
2019-01-26T10:39:27.177Z,7.83
2019-01-26T10:42:21.673Z,7.84
2019-01-26T10:44:51.456Z,7.86
2019-01-26T10:47:21.137Z,7.83
2019-01-26T10:49:50.828Z,7.85
2019-01-26T10:52:20.508Z,7.80
2019-01-26T10:54:50.182Z,7.80
2019-01-26T10:57:19.871Z,7.82
2019-01-26T10:59:49.541Z,7.82
2019-01-26T11:02:19.308Z,7.81
2019-01-26T11:04:49.066Z,7.81
2019-01-26T11:07:18.745Z,7.84
2019-01-26T11:09:49.673Z,7.85
2019-01-26T11:12:20.478Z,7.84
2019-01-26T11:14:50.180Z,7.84
2019-01-26T11:17:19.856Z,7.85
2019-01-26T11:19:49.532Z,7.85
2019-01-26T11:22:19.240Z,7.85
2019-01-26T11:24:49.149Z,7.86
2019-01-26T11:27:18.842Z,7.90
2019-01-26T11:29:48.600Z,7.92
2019-01-26T11:32:18.284Z,7.93
2019-01-26T11:34:48.272Z,7.93
2019-01-26T11:37:17.937Z,7.91
2019-01-26T11:39:54.442Z,7.89
2019-01-26T11:42:24.119Z,7.90
2019-01-26T11:45:16.387Z,7.89
2019-01-26T11:47:46.414Z,7.89
2019-01-26T11:50:22.064Z,7.89
2019-01-26T11:52:51.736Z,7.88
2019-01-26T11:55:32.659Z,7.86
2019-01-26T11:58:02.335Z,7.85
2019-01-26T12:00:49.356Z,7.83
2019-01-26T12:03:26.392Z,7.84
2019-01-26T12:06:00.389Z,7.86
2019-01-26T12:08:30.080Z,7.88
2019-01-26T12:10:59.752Z,7.89
2019-01-26T12:13:29.435Z,7.91
2019-01-26T12:15:59.131Z,7.93
2019-01-26T12:18:28.802Z,7.92
2019-01-26T12:20:58.479Z,7.93
2019-01-26T12:23:28.169Z,7.94
2019-01-26T12:25:57.915Z,7.93
2019-01-26T12:28:27.596Z,7.89
2019-01-26T12:30:57.463Z,7.88
2019-01-26T12:36:20.856Z,7.89
2019-01-26T12:38:50.603Z,7.90
2019-01-26T12:41:20.348Z,7.89
2019-01-26T12:43:50.065Z,7.91
2019-01-26T12:46:25.111Z,7.92
2019-01-26T12:49:00.004Z,7.92
2019-01-26T12:51:29.678Z,7.89
2019-01-26T12:53:59.371Z,7.91
2019-01-26T12:56:29.123Z,7.92
2019-01-26T12:58:59.073Z,7.90
2019-01-26T13:01:28.832Z,7.91
2019-01-26T13:03:58.579Z,7.94
2019-01-26T13:06:28.316Z,7.94
2019-01-26T13:11:42.903Z,7.97
2019-01-26T13:14:12.777Z,7.99
2019-01-26T13:16:42.470Z,7.98
2019-01-26T13:19:12.535Z,7.97
2019-01-26T13:21:42.270Z,8.02
2019-01-26T13:24:12.043Z,8.02
2019-01-26T13:26:41.731Z,8.03
2019-01-26T13:29:11.485Z,8.08
2019-01-26T13:31:41.223Z,8.11
2019-01-26T13:34:10.895Z,8.11
2019-01-26T13:36:40.579Z,8.13
2019-01-26T13:39:10.527Z,8.13
2019-01-26T13:41:40.283Z,8.11
2019-01-26T13:44:09.983Z,8.10
2019-01-26T13:46:39.660Z,8.08
2019-01-26T13:49:09.339Z,8.10
2019-01-26T13:51:39.013Z,8.09
2019-01-26T13:54:08.786Z,8.07
2019-01-26T13:56:38.462Z,8.07
2019-01-26T13:59:08.129Z,8.07
2019-01-26T14:01:37.797Z,8.08
2019-01-26T14:04:07.546Z,8.06
2019-01-26T14:06:38.267Z,8.05
2019-01-26T14:09:09.027Z,8.08
2019-01-26T14:11:38.767Z,8.10
2019-01-26T14:14:08.531Z,8.12
2019-01-26T14:16:38.385Z,8.12
2019-01-26T14:19:08.078Z,8.13
2019-01-26T14:21:37.757Z,8.12
2019-01-26T14:24:07.432Z,8.13
2019-01-26T14:26:37.122Z,8.13
2019-01-26T14:29:06.787Z,8.14
2019-01-26T14:31:36.543Z,8.14
2019-01-26T14:34:06.241Z,8.16
2019-01-26T14:36:35.953Z,8.16
2019-01-26T14:39:08.797Z,8.20
2019-01-26T14:41:38.489Z,8.19
2019-01-26T14:44:09.123Z,8.20
2019-01-26T14:46:38.805Z,8.18
2019-01-26T14:49:08.476Z,8.20
2019-01-26T14:51:38.151Z,8.19
2019-01-26T14:54:08.848Z,8.18
2019-01-26T14:56:38.599Z,8.18
2019-01-26T14:59:08.283Z,8.20
2019-01-26T15:01:37.999Z,8.15
2019-01-26T15:04:07.679Z,8.12
2019-01-26T15:06:37.435Z,8.12
2019-01-26T15:09:09.297Z,8.09
2019-01-26T15:11:39.049Z,8.05
2019-01-26T15:14:08.726Z,8.05
2019-01-26T15:16:38.557Z,8.05
2019-01-26T15:19:08.198Z,8.04
2019-01-26T15:21:37.877Z,8.04
2019-01-26T15:24:07.621Z,8.03
2019-01-26T15:26:37.288Z,8.04
2019-01-26T15:29:07.041Z,8.03
2019-01-26T15:31:36.699Z,8.03
2019-01-26T15:34:06.630Z,8.03
2019-01-26T15:36:36.370Z,8.00
2019-01-26T15:39:08.287Z,8.01
2019-01-26T15:41:37.945Z,8.01
2019-01-26T15:44:07.606Z,8.01
2019-01-26T15:46:37.269Z,8.00
2019-01-26T15:49:06.927Z,7.99
2019-01-26T15:51:36.587Z,8.02
2019-01-26T15:54:06.332Z,7.99
2019-01-26T15:56:36.067Z,8.00
2019-01-26T15:59:05.877Z,8.00
2019-01-26T16:01:50.096Z,7.97
2019-01-26T16:04:19.795Z,7.95
2019-01-26T16:06:49.560Z,7.94
2019-01-26T16:09:19.244Z,7.92
2019-01-26T16:11:49.260Z,7.90
2019-01-26T16:14:18.960Z,7.88
2019-01-26T16:16:48.600Z,7.89
2019-01-26T16:19:18.276Z,7.86
2019-01-26T16:21:47.932Z,7.85
2019-01-26T16:24:17.609Z,7.86
2019-01-26T16:26:47.306Z,7.83
2019-01-26T16:29:16.972Z,7.80
2019-01-26T16:31:46.641Z,7.80
2019-01-26T16:34:16.320Z,7.82
2019-01-26T16:36:46.055Z,7.82
2019-01-26T16:39:15.804Z,7.83
2019-01-26T16:41:45.463Z,7.81
2019-01-26T16:44:15.133Z,7.79
2019-01-26T16:46:44.816Z,7.82
2019-01-26T16:49:14.512Z,7.82
2019-01-26T16:51:44.184Z,7.82
2019-01-26T16:54:13.855Z,7.79
2019-01-26T16:56:48.672Z,7.82
2019-01-26T16:59:19.797Z,7.81
2019-01-26T17:02:07.265Z,7.80
2019-01-26T17:04:36.955Z,7.79
2019-01-26T17:07:06.724Z,7.75
2019-01-26T17:09:36.465Z,7.75
2019-01-26T17:12:07.153Z,7.73
2019-01-26T17:14:37.081Z,7.74
2019-01-26T17:17:06.836Z,7.73
2019-01-26T17:19:36.575Z,7.74
2019-01-26T17:22:06.858Z,7.74
2019-01-26T17:24:36.723Z,7.73
2019-01-26T17:27:06.597Z,7.75
2019-01-26T17:29:36.283Z,7.77
2019-01-26T17:32:06.779Z,7.77
2019-01-26T17:34:36.593Z,7.78
2019-01-26T17:37:06.360Z,7.80
2019-01-26T17:39:36.042Z,7.79
2019-01-26T17:42:06.036Z,7.81
2019-01-26T17:44:35.723Z,7.79
2019-01-26T17:47:05.612Z,7.81
2019-01-26T17:49:35.551Z,7.79
2019-01-26T17:52:07.428Z,7.82
2019-01-26T17:54:37.101Z,7.82
2019-01-26T17:57:06.787Z,7.82
2019-01-26T17:59:36.772Z,7.82
2019-01-26T18:02:06.604Z,7.82
2019-01-26T18:04:36.491Z,7.83
2019-01-26T18:07:06.487Z,7.81
2019-01-26T18:09:36.258Z,7.78
2019-01-26T18:12:06.208Z,7.81
2019-01-26T18:14:35.973Z,7.78
2019-01-26T18:17:05.962Z,7.78
2019-01-26T18:19:35.642Z,7.78
2019-01-26T18:22:05.638Z,7.77
2019-01-26T18:24:35.388Z,7.78
2019-01-26T18:27:05.185Z,7.78
2019-01-26T18:29:34.860Z,7.76
2019-01-26T18:32:05.888Z,7.75
2019-01-26T18:34:35.874Z,7.78
2019-01-26T18:37:05.939Z,7.77
2019-01-26T18:39:35.679Z,7.78
2019-01-26T18:42:05.503Z,7.79
2019-01-26T18:44:35.473Z,7.76
2019-01-26T18:47:05.951Z,7.76
2019-01-26T18:49:35.890Z,7.75
2019-01-26T18:52:05.845Z,7.74
2019-01-26T18:54:35.554Z,7.76
2019-01-26T18:57:05.732Z,7.72
2019-01-26T18:59:35.683Z,7.73
2019-01-26T19:02:05.556Z,7.70
2019-01-26T19:04:42.087Z,7.72
2019-01-26T19:07:12.015Z,7.76
2019-01-26T19:09:42.559Z,7.78
2019-01-26T19:12:12.549Z,7.77
2019-01-26T19:14:42.236Z,7.77
2019-01-26T19:17:11.914Z,7.75
2019-01-26T19:19:41.608Z,7.77
2019-01-26T19:22:12.519Z,7.81
2019-01-26T19:24:42.210Z,7.83
2019-01-26T19:27:11.957Z,7.82
2019-01-26T19:29:42.628Z,7.84
2019-01-26T19:32:12.556Z,7.86
2019-01-26T19:34:42.371Z,7.89
2019-01-26T19:37:12.193Z,7.90
2019-01-26T19:39:41.877Z,7.92
2019-01-26T19:42:11.552Z,7.93
2019-01-26T19:44:41.244Z,7.94
2019-01-26T19:47:10.922Z,7.92
2019-01-26T19:49:40.591Z,7.95
2019-01-26T19:52:10.347Z,7.90
2019-01-26T19:54:40.088Z,7.92
2019-01-26T19:57:09.833Z,7.90
2019-01-26T19:59:40.503Z,7.91
2019-01-26T20:02:10.317Z,7.92
2019-01-26T20:04:40.056Z,7.94
2019-01-26T20:07:09.876Z,7.88
2019-01-26T20:09:39.768Z,7.87
2019-01-26T20:12:09.589Z,7.88
2019-01-26T20:14:39.262Z,7.89
2019-01-26T20:17:09.027Z,7.89
2019-01-26T20:19:39.013Z,7.86
2019-01-26T20:22:08.769Z,7.92
2019-01-26T20:24:38.448Z,7.90
2019-01-26T20:27:09.045Z,7.92
2019-01-26T20:29:39.023Z,7.92
2019-01-26T20:32:08.792Z,7.93
2019-01-26T20:34:38.484Z,7.89
2019-01-26T20:37:08.217Z,7.91
2019-01-26T20:39:37.900Z,7.94
2019-01-26T20:42:07.650Z,7.94
2019-01-26T20:44:37.330Z,7.90
2019-01-26T20:47:07.159Z,7.89
2019-01-26T20:49:36.836Z,7.89
2019-01-26T20:52:06.657Z,7.91
2019-01-26T20:54:37.475Z,7.91
2019-01-26T20:57:07.292Z,7.92
2019-01-26T20:59:37.049Z,7.92
2019-01-26T21:02:08.695Z,7.92
2019-01-26T21:04:38.363Z,7.91
2019-01-26T21:07:08.120Z,7.92
2019-01-26T21:09:37.801Z,7.95
2019-01-26T21:12:07.477Z,7.93
2019-01-26T21:14:37.154Z,7.97
2019-01-26T21:17:06.910Z,7.99
2019-01-26T21:19:37.644Z,8.03
2019-01-26T21:22:07.325Z,8.00
2019-01-26T21:24:37.006Z,7.99
2019-01-26T21:27:06.855Z,7.99
2019-01-26T21:29:36.517Z,8.01
2019-01-26T21:32:06.361Z,8.01
2019-01-26T21:34:36.033Z,8.01
2019-01-26T21:37:05.788Z,7.98
2019-01-26T21:39:35.463Z,8.00
2019-01-26T21:42:05.624Z,8.02
2019-01-26T21:44:35.308Z,8.04
2019-01-26T21:47:05.575Z,8.03
2019-01-26T21:49:35.264Z,8.03
2019-01-26T21:52:05.490Z,8.02
2019-01-26T21:54:35.503Z,8.04
2019-01-26T21:57:05.634Z,8.00
2019-01-26T21:59:35.338Z,8.00
2019-01-26T22:02:05.762Z,8.03
2019-01-26T22:04:35.456Z,8.04
2019-01-26T22:07:05.221Z,8.04
2019-01-26T22:09:34.912Z,8.04
2019-01-26T22:12:05.630Z,8.01
2019-01-26T22:14:35.676Z,8.04
2019-01-26T22:17:05.397Z,8.02
2019-01-26T22:19:35.073Z,8.01
2019-01-26T22:22:04.988Z,8.03
2019-01-26T22:24:34.661Z,7.98
2019-01-26T22:27:04.494Z,8.01
2019-01-26T22:29:34.179Z,8.02
2019-01-26T22:32:04.364Z,8.04
2019-01-26T22:34:34.044Z,8.02
2019-01-26T22:37:03.766Z,8.04
2019-01-26T22:39:33.511Z,8.03
2019-01-26T22:42:03.209Z,7.94
2019-01-26T22:44:32.884Z,7.94
2019-01-26T22:47:02.556Z,7.95
2019-01-26T22:49:32.268Z,7.91
2019-01-26T22:52:01.946Z,7.91
2019-01-26T22:54:31.612Z,7.87
2019-01-26T22:57:01.287Z,7.87
2019-01-26T22:59:30.986Z,7.88
2019-01-26T23:02:01.058Z,7.85
2019-01-26T23:04:55.735Z,7.83
2019-01-26T23:07:35.606Z,7.82
2019-01-26T23:10:45.459Z,7.76
2019-01-26T23:14:03.911Z,7.77
2019-01-26T23:17:10.702Z,7.72
2019-01-26T23:20:17.405Z,7.71
2019-01-26T23:23:19.453Z,7.72
2019-01-26T23:26:10.950Z,7.71
2019-01-26T23:29:27.762Z,7.74
2019-01-26T23:31:57.436Z,7.74
2019-01-26T23:34:27.182Z,7.76
2019-01-26T23:36:56.852Z,7.76
2019-01-26T23:39:26.669Z,7.75
2019-01-26T23:41:56.499Z,7.76
2019-01-26T23:44:26.171Z,7.78
2019-01-26T23:46:55.856Z,7.76
2019-01-26T23:49:25.527Z,7.79
2019-01-26T23:51:55.194Z,7.77
2019-01-26T23:54:24.939Z,7.77
2019-01-26T23:56:54.677Z,7.79
2019-01-26T23:59:24.336Z,7.84
